Terminal Aerodrome Forecast
Issued by NWS

Home | Current Version | Previous Version | Text Only | Print | Product List | Glossary On
Versions: 1 2 3 4 5 6 7 8 9 10 11 12 13
000
FTUS46 KPDT 221100
TAFPSC
TAF
KPSC 221120Z 2212/2312 VRB04KT P6SM SCT150 BKN250
     FM221700 23007KT P6SM SCT100 BKN150
     FM230400 22005KT P6SM SCT080 BKN100=

USA.gov is the U.S. government's official web portal to all federal, state and local government web resources and services.